Time;durP1;ratioP1;P1;durP2;ratioP2;P2;SDS_P1;SDS_P2;PMS_P1;PMS_P2;Temp;Humidity;BMP_temperature;BMP_pressure;BME280_temperature;BME280_humidity;BME280_pressure;Samples;Min_cycle;Max_cycle;Signal;HPM_P1;HPM_P2
2023/06/21 00:02:17;;;;;;;15.63;10.30;;;21.10;99.90;;;;;;5001741;28;20206;-39
2023/06/21 00:04:43;;;;;;;15.27;10.43;;;21.10;99.90;;;;;;5026648;28;20188;-35
2023/06/21 00:07:08;;;;;;;16.88;9.57;;;21.10;99.90;;;;;;4993186;28;20265;-36
2023/06/21 00:09:34;;;;;;;15.85;9.93;;;20.90;99.90;;;;;;4998431;28;20238;-37
2023/06/21 00:12:00;;;;;;;16.00;10.57;;;20.90;99.90;;;;;;4986235;28;20279;-38
2023/06/21 00:14:26;;;;;;;16.40;10.95;;;20.80;99.90;;;;;;4993109;28;20265;-35
2023/06/21 00:16:52;;;;;;;19.50;11.25;;;20.70;99.90;;;;;;4993501;28;20222;-39
2023/06/21 00:19:18;;;;;;;23.20;11.38;;;20.70;99.90;;;;;;4991759;28;20183;-39
2023/06/21 00:21:44;;;;;;;20.30;10.80;;;20.60;99.90;;;;;;5003327;28;20188;-38
2023/06/21 00:24:13;;;;;;;17.63;10.40;;;20.60;99.90;;;;;;4993736;28;20187;-37
2023/06/21 00:26:39;;;;;;;23.70;11.43;;;20.60;99.90;;;;;;5005195;28;20226;-38
2023/06/21 00:29:05;;;;;;;22.50;11.88;;;20.70;99.90;;;;;;4982594;28;20257;-37
2023/06/21 00:31:32;;;;;;;19.83;11.27;;;20.60;99.90;;;;;;5017733;28;20206;-37
2023/06/21 00:33:58;;;;;;;15.73;10.23;;;20.70;99.90;;;;;;4986777;28;20219;-35
2023/06/21 00:36:24;;;;;;;20.30;11.10;;;20.70;99.90;;;;;;4993138;28;20218;-39
2023/06/21 00:38:50;;;;;;;15.25;10.63;;;20.70;99.90;;;;;;4987121;28;20184;-36
2023/06/21 00:41:16;;;;;;;14.70;10.13;;;20.70;99.90;;;;;;4997685;28;20180;-37
2023/06/21 00:43:42;;;;;;;19.92;11.45;;;20.70;99.90;;;;;;4993549;28;20191;-36
2023/06/21 00:46:08;;;;;;;16.90;9.95;;;20.70;99.90;;;;;;4985204;28;20279;-35
2023/06/21 00:48:34;;;;;;;19.95;10.88;;;20.70;99.90;;;;;;4990121;28;20188;-37
2023/06/21 00:51:00;;;;;;;13.10;9.63;;;20.60;99.90;;;;;;4993582;28;20202;-35
2023/06/21 00:53:28;;;;;;;16.00;10.52;;;20.60;99.90;;;;;;4991060;28;20191;-43
2023/06/21 00:56:00;;;;;;;18.38;10.75;;;20.70;99.90;;;;;;5006895;28;20207;-43
2023/06/21 00:58:27;;;;;;;15.18;10.15;;;20.70;99.90;;;;;;4992857;28;20323;-41
2023/06/21 01:00:53;;;;;;;16.10;10.00;;;20.70;99.90;;;;;;4996687;28;20188;-43
2023/06/21 01:03:21;;;;;;;14.13;10.70;;;20.70;99.90;;;;;;5010821;28;20272;-43
2023/06/21 01:06:11;;;;;;;14.77;10.73;;;20.70;99.90;;;;;;4992654;28;20195;-43
2023/06/21 01:09:02;;;;;;;16.85;10.25;;;20.70;99.90;;;;;;4987812;28;20738;-43
2023/06/21 01:11:52;;;;;;;12.27;10.15;;;20.60;99.90;;;;;;4966105;28;20192;-40
2023/06/21 01:14:40;;;;;;;15.35;9.82;;;20.60;99.90;;;;;;5010565;28;20313;-43
2023/06/21 01:17:10;;;;;;;16.05;10.32;;;20.50;99.90;;;;;;5012252;28;20230;-40
2023/06/21 01:19:50;;;;;;;20.02;10.30;;;20.40;99.90;;;;;;4995190;28;20183;-43
2023/06/21 01:22:28;;;;;;;17.15;10.93;;;20.30;99.90;;;;;;4995588;28;20241;-43
2023/06/21 01:25:12;;;;;;;14.80;9.98;;;20.30;99.90;;;;;;4994750;28;20194;-43
2023/06/21 01:27:56;;;;;;;18.42;10.38;;;20.30;99.90;;;;;;5010264;28;20199;-42
2023/06/21 01:30:25;;;;;;;16.70;10.55;;;20.20;99.90;;;;;;5008940;28;20279;-43
2023/06/21 01:32:54;;;;;;;15.85;10.70;;;20.20;99.90;;;;;;4995936;28;20194;-42
2023/06/21 01:35:21;;;;;;;16.67;10.13;;;20.20;99.90;;;;;;4988122;28;20183;-43
2023/06/21 01:37:51;;;;;;;18.80;10.57;;;20.20;99.90;;;;;;4989912;28;20689;-42
2023/06/21 01:40:19;;;;;;;12.50;10.02;;;20.20;99.90;;;;;;5010548;28;20216;-42
2023/06/21 01:42:45;;;;;;;15.73;9.38;;;20.20;99.90;;;;;;4988437;28;20588;-43
2023/06/21 01:45:11;;;;;;;12.45;10.45;;;20.20;99.90;;;;;;4988380;28;20184;-43
2023/06/21 01:47:40;;;;;;;14.30;9.93;;;20.20;99.90;;;;;;5011210;28;20229;-42
2023/06/21 01:50:10;;;;;;;15.30;10.23;;;20.20;99.90;;;;;;4995492;28;20214;-43
2023/06/21 01:52:38;;;;;;;10.93;9.80;;;20.20;99.90;;;;;;4997777;28;20190;-43
2023/06/21 01:55:06;;;;;;;14.15;10.00;;;20.20;99.90;;;;;;4995518;28;20191;-43
2023/06/21 01:57:36;;;;;;;11.93;10.25;;;20.20;99.90;;;;;;4991413;28;20203;-43
2023/06/21 02:00:17;;;;;;;13.23;10.40;;;20.20;99.90;;;;;;4995409;28;20184;-42
2023/06/21 02:02:52;;;;;;;14.30;11.50;;;20.10;99.90;;;;;;5010072;28;20179;-43
2023/06/21 02:05:20;;;;;;;15.75;10.43;;;20.10;99.90;;;;;;4986088;28;20211;-43
2023/06/21 02:07:47;;;;;;;19.02;10.77;;;20.10;99.90;;;;;;4991017;28;20281;-43
2023/06/21 02:10:15;;;;;;;14.98;10.40;;;20.00;99.90;;;;;;4992598;28;20191;-41
2023/06/21 02:12:47;;;;;;;16.73;10.13;;;19.90;99.90;;;;;;4993189;28;20241;-43
2023/06/21 02:15:14;;;;;;;13.13;10.38;;;19.90;99.90;;;;;;5008120;28;20198;-43
2023/06/21 02:17:40;;;;;;;14.35;9.35;;;19.90;99.90;;;;;;5003016;28;20219;-42
2023/06/21 02:20:13;;;;;;;16.00;9.55;;;19.90;99.90;;;;;;4994830;28;20313;-42
2023/06/21 02:22:41;;;;;;;16.90;10.65;;;19.90;99.90;;;;;;5001119;28;20176;-43
2023/06/21 02:25:10;;;;;;;15.20;9.38;;;19.90;99.90;;;;;;5002982;28;20175;-42
2023/06/21 02:27:36;;;;;;;16.02;9.75;;;19.90;99.90;;;;;;4994183;28;20207;-43
2023/06/21 02:30:05;;;;;;;14.30;11.25;;;19.90;99.90;;;;;;4995015;28;20266;-43
2023/06/21 02:32:31;;;;;;;17.45;11.57;;;19.90;99.90;;;;;;5002327;28;20183;-43
2023/06/21 02:34:57;;;;;;;24.70;12.13;;;19.90;99.90;;;;;;4992865;28;20179;-43
2023/06/21 02:37:23;;;;;;;21.27;12.15;;;20.00;99.90;;;;;;4985687;28;20208;-43
2023/06/21 02:39:49;;;;;;;16.60;11.82;;;20.00;99.90;;;;;;4994515;28;20186;-43
2023/06/21 02:42:16;;;;;;;23.42;11.93;;;20.00;99.90;;;;;;4994487;28;20183;-43
2023/06/21 02:44:41;;;;;;;17.98;12.15;;;20.10;99.90;;;;;;4994389;28;20175;-43
2023/06/21 02:47:07;;;;;;;15.82;11.10;;;20.10;99.90;;;;;;4993390;28;20211;-39
2023/06/21 02:49:36;;;;;;;13.57;11.27;;;20.10;99.90;;;;;;5015446;28;20184;-42
2023/06/21 02:52:06;;;;;;;12.63;11.30;;;20.00;99.90;;;;;;5005553;28;20183;-40
2023/06/21 02:54:32;;;;;;;14.75;11.98;;;20.10;99.90;;;;;;4994271;28;20269;-41
2023/06/21 02:56:58;;;;;;;15.55;10.55;;;20.10;99.90;;;;;;5010250;28;20253;-42
2023/06/21 02:59:28;;;;;;;15.48;11.38;;;20.00;99.90;;;;;;5009404;28;20268;-40
2023/06/21 03:01:55;;;;;;;16.40;11.30;;;20.00;99.90;;;;;;4989041;28;20191;-37
2023/06/21 03:04:21;;;;;;;16.13;10.52;;;20.00;99.90;;;;;;4989150;28;20183;-40
2023/06/21 03:06:47;;;;;;;15.40;10.68;;;19.90;99.90;;;;;;4993691;28;20215;-41
2023/06/21 03:09:13;;;;;;;21.02;10.85;;;20.00;99.90;;;;;;4985640;28;20256;-36
2023/06/21 03:11:38;;;;;;;19.90;10.10;;;19.90;99.90;;;;;;4990239;28;20657;-41
2023/06/21 03:14:04;;;;;;;21.58;11.73;;;19.90;99.90;;;;;;4994902;28;20180;-40
2023/06/21 03:16:31;;;;;;;19.52;10.52;;;19.90;99.90;;;;;;4989857;28;20216;-40
2023/06/21 03:18:59;;;;;;;21.00;11.05;;;19.90;99.90;;;;;;4986466;28;20191;-38
2023/06/21 03:21:28;;;;;;;16.88;11.23;;;19.80;99.90;;;;;;5005572;28;20266;-37
2023/06/21 03:23:55;;;;;;;22.95;11.73;;;19.80;99.90;;;;;;4992801;28;20240;-40
2023/06/21 03:26:29;;;;;;;22.17;11.23;;;19.90;99.90;;;;;;4993337;28;20187;-40
2023/06/21 03:29:02;;;;;;;20.55;10.88;;;19.90;99.90;;;;;;4998259;28;20215;-39
2023/06/21 03:31:32;;;;;;;17.50;12.00;;;19.90;99.90;;;;;;4993063;28;20191;-40
2023/06/21 03:33:58;;;;;;;18.25;11.55;;;19.80;99.90;;;;;;4991861;28;20202;-41
2023/06/21 03:36:28;;;;;;;19.38;10.57;;;19.80;99.90;;;;;;4993609;28;20219;-42
2023/06/21 03:38:55;;;;;;;15.77;11.73;;;19.80;99.90;;;;;;4981830;28;20216;-40
2023/06/21 03:41:21;;;;;;;17.08;10.90;;;19.80;99.90;;;;;;5008224;28;20206;-37
2023/06/21 03:43:48;;;;;;;17.63;11.00;;;19.80;99.90;;;;;;4989510;28;20183;-40
2023/06/21 03:46:15;;;;;;;16.70;11.18;;;19.80;99.90;;;;;;4991563;28;20191;-39
2023/06/21 03:48:42;;;;;;;17.23;10.57;;;19.90;99.90;;;;;;4988695;28;20279;-39
2023/06/21 03:51:08;;;;;;;19.25;11.57;;;20.00;99.90;;;;;;5009485;28;20179;-41
2023/06/21 03:53:35;;;;;;;17.73;11.20;;;20.00;99.90;;;;;;5000958;28;20187;-39
2023/06/21 03:56:01;;;;;;;22.05;11.15;;;20.00;99.90;;;;;;5003359;28;20243;-38
2023/06/21 03:58:26;;;;;;;14.45;11.30;;;20.00;99.90;;;;;;4992058;28;20265;-41
2023/06/21 04:00:52;;;;;;;18.20;11.68;;;20.10;99.90;;;;;;4990197;28;20239;-39
2023/06/21 04:03:18;;;;;;;20.85;12.38;;;19.90;99.90;;;;;;4992964;28;20286;-42
2023/06/21 04:05:44;;;;;;;19.48;12.80;;;19.90;99.90;;;;;;4992086;28;20186;-39
2023/06/21 04:08:10;;;;;;;19.05;11.77;;;20.00;99.90;;;;;;4990419;28;20223;-40
2023/06/21 04:10:36;;;;;;;21.75;11.00;;;20.00;99.90;;;;;;4992429;28;20192;-40
2023/06/21 04:13:02;;;;;;;17.02;10.93;;;20.10;99.90;;;;;;4992916;28;20191;-40
2023/06/21 04:15:29;;;;;;;17.50;11.07;;;20.10;99.90;;;;;;4989557;28;20229;-38
2023/06/21 04:17:57;;;;;;;19.40;11.80;;;20.10;99.90;;;;;;5009297;28;20204;-40
2023/06/21 04:20:24;;;;;;;18.55;11.65;;;20.10;99.90;;;;;;4992280;28;20219;-39
2023/06/21 04:22:50;;;;;;;19.00;10.85;;;20.10;99.90;;;;;;5002656;28;20183;-40
2023/06/21 04:25:16;;;;;;;19.08;12.13;;;20.10;99.90;;;;;;4989620;28;20250;-40
2023/06/21 04:27:45;;;;;;;17.02;10.90;;;20.10;99.90;;;;;;4989123;28;20226;-41
2023/06/21 04:30:12;;;;;;;16.83;11.95;;;20.10;99.90;;;;;;4995792;28;20660;-40
2023/06/21 04:32:44;;;;;;;19.60;11.65;;;20.20;99.90;;;;;;4992547;28;20183;-38
2023/06/21 04:35:14;;;;;;;19.10;12.18;;;20.20;99.90;;;;;;4992912;28;20194;-41
2023/06/21 04:37:44;;;;;;;16.80;12.27;;;20.30;99.90;;;;;;4996143;28;20215;-39
2023/06/21 04:40:21;;;;;;;15.00;12.20;;;20.30;99.90;;;;;;5009445;28;20175;-40
2023/06/21 04:42:54;;;;;;;17.27;11.48;;;20.30;99.90;;;;;;4995528;28;20180;-39
2023/06/21 04:45:21;;;;;;;18.88;11.13;;;20.40;99.90;;;;;;5001080;28;20187;-42
2023/06/21 04:47:47;;;;;;;14.55;10.75;;;20.40;99.90;;;;;;5012437;28;20211;-37
2023/06/21 04:50:13;;;;;;;17.63;11.82;;;20.40;99.90;;;;;;4995985;28;20187;-39
2023/06/21 04:52:39;;;;;;;19.60;12.18;;;20.50;99.90;;;;;;5000868;28;20233;-38
2023/06/21 04:55:09;;;;;;;17.05;11.48;;;20.50;99.90;;;;;;5005370;28;20255;-40
2023/06/21 04:57:35;;;;;;;15.52;11.38;;;20.50;99.90;;;;;;5002531;28;20368;-41
2023/06/21 05:00:07;;;;;;;20.45;12.68;;;20.50;99.90;;;;;;5000323;28;20187;-40
2023/06/21 05:02:33;;;;;;;20.90;11.77;;;20.50;99.90;;;;;;4996637;28;20221;-41
2023/06/21 05:05:00;;;;;;;17.92;10.82;;;20.50;99.90;;;;;;5009417;28;20183;-40
2023/06/21 05:07:26;;;;;;;14.30;11.85;;;20.60;99.90;;;;;;4993176;28;20269;-41
2023/06/21 05:09:51;;;;;;;17.45;11.65;;;20.60;99.90;;;;;;4985035;28;20191;-41
2023/06/21 05:12:17;;;;;;;15.70;11.45;;;20.60;99.90;;;;;;4992259;28;20198;-38
2023/06/21 05:14:43;;;;;;;20.15;11.77;;;20.60;99.90;;;;;;4994701;28;20187;-40
2023/06/21 05:17:11;;;;;;;16.25;11.55;;;20.70;99.90;;;;;;5028540;28;20763;-41
2023/06/21 05:19:37;;;;;;;18.52;12.02;;;20.70;99.90;;;;;;5011925;28;20179;-41
2023/06/21 05:22:03;;;;;;;16.75;11.55;;;20.80;99.90;;;;;;4995850;28;20209;-40
2023/06/21 05:24:29;;;;;;;16.08;12.35;;;20.80;99.90;;;;;;4993271;28;20769;-41
2023/06/21 05:26:54;;;;;;;16.33;11.70;;;20.90;99.90;;;;;;5023211;28;20289;-42
2023/06/21 05:29:20;;;;;;;23.90;13.07;;;20.90;99.90;;;;;;4993849;28;20192;-41
2023/06/21 05:31:46;;;;;;;14.88;12.45;;;21.00;99.90;;;;;;5004864;28;20198;-39
2023/06/21 05:34:12;;;;;;;17.45;12.15;;;21.00;99.90;;;;;;4991689;28;20214;-42
2023/06/21 05:36:38;;;;;;;16.75;12.43;;;21.10;99.90;;;;;;4992355;28;20207;-41
2023/06/21 05:39:04;;;;;;;18.65;12.40;;;21.10;99.90;;;;;;5012302;28;20460;-39
2023/06/21 05:41:30;;;;;;;18.95;12.18;;;21.10;99.90;;;;;;4993045;28;20287;-40
2023/06/21 05:44:00;;;;;;;18.23;12.98;;;21.00;99.90;;;;;;4991969;28;20180;-39
2023/06/21 05:46:26;;;;;;;20.10;12.27;;;21.00;99.90;;;;;;4992026;28;20208;-38
2023/06/21 05:48:53;;;;;;;15.82;11.98;;;21.10;99.90;;;;;;4996233;28;20259;-39
2023/06/21 05:51:21;;;;;;;17.73;13.32;;;21.10;99.90;;;;;;5012194;28;20245;-40
2023/06/21 05:53:48;;;;;;;16.15;12.32;;;21.10;99.90;;;;;;5005294;28;20187;-38
2023/06/21 05:56:14;;;;;;;19.52;13.48;;;21.10;99.90;;;;;;5010262;28;20238;-38
2023/06/21 05:58:43;;;;;;;15.70;12.32;;;21.10;99.90;;;;;;5003546;28;20187;-41
2023/06/21 06:01:10;;;;;;;17.52;13.32;;;21.30;99.90;;;;;;5011362;28;20200;-37
2023/06/21 06:03:38;;;;;;;15.52;12.48;;;21.40;99.90;;;;;;5009720;28;20187;-41
2023/06/21 06:06:04;;;;;;;18.75;12.93;;;21.50;99.90;;;;;;4985756;28;20191;-39
2023/06/21 06:08:31;;;;;;;17.13;12.38;;;21.70;99.90;;;;;;4994739;28;20200;-38
2023/06/21 06:10:58;;;;;;;16.50;12.88;;;21.80;99.90;;;;;;4983574;28;20199;-40
2023/06/21 06:13:26;;;;;;;16.33;12.70;;;22.00;99.90;;;;;;5009495;28;20291;-39
2023/06/21 06:15:52;;;;;;;15.95;11.30;;;22.00;99.90;;;;;;4999514;28;20206;-41
2023/06/21 06:18:21;;;;;;;15.15;11.55;;;22.20;99.90;;;;;;4992131;28;20199;-39
2023/06/21 06:20:47;;;;;;;13.20;11.45;;;22.30;99.90;;;;;;5007875;28;20215;-38
2023/06/21 06:23:13;;;;;;;15.23;12.25;;;22.40;99.90;;;;;;4991972;28;20211;-39
2023/06/21 06:25:40;;;;;;;15.98;12.10;;;22.40;99.90;;;;;;4993793;28;20183;-40
2023/06/21 06:28:06;;;;;;;18.90;12.85;;;22.40;99.90;;;;;;5004544;28;20196;-36
2023/06/21 06:30:32;;;;;;;17.05;12.90;;;22.50;99.90;;;;;;5008833;28;20184;-40
2023/06/21 06:32:58;;;;;;;21.50;14.18;;;22.50;99.90;;;;;;4990838;28;20186;-40
2023/06/21 06:35:24;;;;;;;19.00;13.48;;;22.40;99.90;;;;;;4988828;28;20191;-41
2023/06/21 06:37:50;;;;;;;18.80;13.60;;;22.50;99.90;;;;;;4981250;28;20285;-38
2023/06/21 06:40:16;;;;;;;13.73;12.07;;;22.60;99.90;;;;;;4993830;28;20220;-41
2023/06/21 06:42:41;;;;;;;19.00;13.45;;;22.60;99.90;;;;;;4994847;28;20179;-41
2023/06/21 06:45:08;;;;;;;13.25;11.88;;;22.70;99.90;;;;;;5026994;28;20187;-40
2023/06/21 06:47:34;;;;;;;17.60;12.85;;;22.80;99.90;;;;;;5007023;28;20203;-38
2023/06/21 06:50:04;;;;;;;17.05;13.07;;;22.80;99.90;;;;;;4991144;28;20188;-39
2023/06/21 06:52:30;;;;;;;14.10;11.52;;;23.00;99.90;;;;;;4985340;28;20275;-39
2023/06/21 06:54:56;;;;;;;16.60;12.38;;;23.20;99.90;;;;;;4994707;28;20183;-40
2023/06/21 06:57:23;;;;;;;14.18;12.00;;;23.40;99.90;;;;;;5024898;28;20230;-40
2023/06/21 06:59:49;;;;;;;13.23;11.75;;;23.50;99.90;;;;;;4990692;28;20236;-41
2023/06/21 07:02:15;;;;;;;13.98;10.88;;;23.70;99.90;;;;;;4991916;28;20188;-41
2023/06/21 07:04:41;;;;;;;14.23;11.00;;;23.80;99.90;;;;;;4995013;28;20246;-40
2023/06/21 07:07:07;;;;;;;14.38;10.85;;;23.90;99.90;;;;;;5010251;28;20687;-41
2023/06/21 07:09:33;;;;;;;11.50;10.35;;;23.80;99.90;;;;;;4999526;28;20649;-39
2023/06/21 07:12:01;;;;;;;10.93;8.70;;;23.80;99.90;;;;;;5008360;28;20245;-38
2023/06/21 07:14:27;;;;;;;12.13;8.10;;;23.90;99.90;;;;;;4993946;28;20183;-37
2023/06/21 07:16:53;;;;;;;8.38;7.55;;;24.00;99.90;;;;;;4979715;28;20266;-39
2023/06/21 07:19:19;;;;;;;9.82;7.93;;;24.10;99.90;;;;;;4991663;28;20184;-39
2023/06/21 07:21:45;;;;;;;10.30;7.50;;;24.20;99.90;;;;;;4993913;28;20183;-40
2023/06/21 07:24:12;;;;;;;10.13;7.75;;;24.20;99.90;;;;;;4986272;28;20176;-41
2023/06/21 07:26:39;;;;;;;9.80;8.57;;;24.40;99.90;;;;;;4993399;28;20211;-41
2023/06/21 07:29:05;;;;;;;9.93;8.02;;;24.50;99.90;;;;;;4978908;28;20270;-41
2023/06/21 07:31:32;;;;;;;14.23;9.05;;;24.50;99.90;;;;;;5009367;28;20187;-40
2023/06/21 07:33:58;;;;;;;9.35;8.27;;;24.50;99.90;;;;;;4994227;28;20183;-41
2023/06/21 07:36:25;;;;;;;9.98;8.73;;;24.30;99.90;;;;;;4991690;28;20911;-41
2023/06/21 07:38:51;;;;;;;14.48;8.82;;;24.30;99.90;;;;;;5003690;28;20183;-41
2023/06/21 07:41:17;;;;;;;9.50;8.18;;;24.30;99.90;;;;;;5009991;28;20186;-41
2023/06/21 07:43:43;;;;;;;10.45;8.25;;;24.30;99.90;;;;;;4988645;28;20186;-41
2023/06/21 07:46:09;;;;;;;12.20;8.13;;;24.20;99.90;;;;;;5017186;28;20199;-40
2023/06/21 07:48:35;;;;;;;10.30;8.45;;;24.20;99.90;;;;;;4976637;28;20215;-42
2023/06/21 07:51:01;;;;;;;10.45;8.35;;;24.20;99.90;;;;;;4989398;28;20264;-42
2023/06/21 07:53:27;;;;;;;11.98;8.70;;;24.20;99.90;;;;;;4991747;28;20191;-41
2023/06/21 07:55:52;;;;;;;10.25;9.20;;;24.20;99.90;;;;;;4992290;28;20197;-42
2023/06/21 07:58:18;;;;;;;9.32;8.27;;;24.10;99.90;;;;;;4990970;28;20207;-41
2023/06/21 08:00:45;;;;;;;10.57;8.77;;;24.10;99.90;;;;;;5005998;28;20184;-40
2023/06/21 08:03:13;;;;;;;10.27;8.13;;;24.10;99.90;;;;;;5007735;28;20176;-38
2023/06/21 08:05:39;;;;;;;8.65;7.82;;;24.10;99.90;;;;;;5010786;28;20183;-41
2023/06/21 08:08:06;;;;;;;9.68;7.72;;;24.10;99.90;;;;;;4985004;28;20218;-42
2023/06/21 08:10:36;;;;;;;8.93;7.80;;;24.00;99.90;;;;;;5000147;28;20184;-42
2023/06/21 08:13:03;;;;;;;8.55;7.70;;;23.90;99.90;;;;;;4994146;28;20266;-43
2023/06/21 08:15:31;;;;;;;8.88;7.80;;;23.80;99.90;;;;;;5010791;28;20180;-44
2023/06/21 08:17:57;;;;;;;10.05;8.25;;;23.80;99.90;;;;;;5017991;28;20207;-43
2023/06/21 08:20:23;;;;;;;9.48;8.52;;;23.70;99.90;;;;;;5011360;28;20270;-44
2023/06/21 08:22:49;;;;;;;13.13;8.93;;;23.50;99.90;;;;;;4998366;28;20180;-44
2023/06/21 08:25:15;;;;;;;14.00;9.73;;;23.30;99.90;;;;;;4996507;28;20278;-43
2023/06/21 08:27:46;;;;;;;14.43;10.98;;;23.20;99.90;;;;;;5011147;28;20207;-44
2023/06/21 08:30:14;;;;;;;20.50;11.27;;;23.00;99.90;;;;;;5005155;28;20318;-44
2023/06/21 08:32:42;;;;;;;17.48;12.05;;;22.80;99.90;;;;;;4993543;28;20249;-44
2023/06/21 08:35:09;;;;;;;16.50;11.68;;;22.70;99.90;;;;;;4997335;28;20190;-44
2023/06/21 08:37:40;;;;;;;21.27;12.57;;;22.40;99.90;;;;;;4992488;28;20215;-44
2023/06/21 08:40:08;;;;;;;12.05;9.88;;;22.20;99.90;;;;;;4993674;28;20200;-42
2023/06/21 08:42:34;;;;;;;15.27;11.25;;;21.90;99.90;;;;;;5007259;28;20176;-44
2023/06/21 08:45:01;;;;;;;14.05;9.77;;;21.90;99.90;;;;;;5003911;28;20243;-43
2023/06/21 08:47:28;;;;;;;11.05;9.80;;;21.80;99.90;;;;;;5009874;28;20237;-44
2023/06/21 08:49:58;;;;;;;16.92;9.70;;;21.70;99.90;;;;;;4992389;28;20222;-44
2023/06/21 08:52:28;;;;;;;12.48;10.07;;;21.60;99.90;;;;;;5006378;28;20183;-44
2023/06/21 08:55:02;;;;;;;10.55;9.50;;;21.60;99.90;;;;;;5005615;28;20246;-44
2023/06/21 08:57:32;;;;;;;13.48;9.18;;;21.60;99.90;;;;;;4998992;28;20253;-44
2023/06/21 09:00:03;;;;;;;17.27;10.57;;;21.60;99.90;;;;;;4987781;28;20257;-44
2023/06/21 09:02:54;;;;;;;10.98;9.88;;;21.60;99.90;;;;;;5008496;28;20179;-43
2023/06/21 09:05:40;;;;;;;16.80;10.40;;;21.50;99.90;;;;;;5005163;28;20207;-44
2023/06/21 09:08:07;;;;;;;12.35;11.15;;;21.50;99.90;;;;;;4998989;28;20218;-44
2023/06/21 09:10:36;;;;;;;11.38;10.18;;;21.50;99.90;;;;;;5007315;28;20649;-43
2023/06/21 09:13:03;;;;;;;12.15;10.68;;;21.40;99.90;;;;;;4987683;28;20203;-43
2023/06/21 09:15:29;;;;;;;12.20;10.93;;;21.40;99.90;;;;;;5008121;28;20183;-42
2023/06/21 09:17:56;;;;;;;12.63;11.07;;;21.30;99.90;;;;;;5005129;28;20219;-43
2023/06/21 09:20:27;;;;;;;11.55;10.45;;;21.30;99.90;;;;;;5011529;28;20226;-43
2023/06/21 09:22:57;;;;;;;15.93;11.05;;;21.30;99.90;;;;;;4985582;28;20218;-44
2023/06/21 09:25:24;;;;;;;12.35;10.60;;;21.20;99.90;;;;;;4994347;28;20235;-44
2023/06/21 09:27:55;;;;;;;15.68;11.18;;;21.20;99.90;;;;;;5017749;28;20210;-44
2023/06/21 09:30:22;;;;;;;12.18;10.80;;;21.20;99.90;;;;;;4992554;28;20188;-44
2023/06/21 09:32:49;;;;;;;13.48;10.77;;;21.10;99.90;;;;;;4992541;28;20198;-42
2023/06/21 09:35:15;;;;;;;12.05;10.65;;;21.10;99.90;;;;;;5001950;28;21350;-44
2023/06/21 09:37:41;;;;;;;13.77;10.93;;;21.10;99.90;;;;;;5005236;28;20222;-44
2023/06/21 09:40:08;;;;;;;11.70;10.18;;;21.10;99.90;;;;;;4997371;28;20183;-44
2023/06/21 09:42:39;;;;;;;11.07;9.02;;;21.00;99.90;;;;;;4997618;28;20184;-44
2023/06/21 09:45:12;;;;;;;10.65;8.95;;;21.00;99.90;;;;;;5019665;28;20192;-43
2023/06/21 09:47:42;;;;;;;13.25;8.63;;;20.90;99.90;;;;;;5000305;28;20211;-42
2023/06/21 09:50:12;;;;;;;10.00;7.32;;;20.70;99.90;;;;;;5013208;28;20183;-43
2023/06/21 09:52:44;;;;;;;9.82;7.40;;;20.60;99.90;;;;;;5017163;28;20318;-42
2023/06/21 09:55:16;;;;;;;12.60;7.28;;;20.50;99.90;;;;;;5002707;28;20211;-41
2023/06/21 09:57:43;;;;;;;10.00;7.38;;;20.50;99.90;;;;;;5016842;28;20227;-43
2023/06/21 10:00:10;;;;;;;8.65;6.88;;;20.50;99.90;;;;;;4999786;28;20176;-43
2023/06/21 10:02:40;;;;;;;12.07;7.65;;;20.50;99.90;;;;;;4996601;28;20188;-42
2023/06/21 10:05:18;;;;;;;16.35;9.88;;;20.60;99.90;;;;;;5003326;28;20198;-41
2023/06/21 10:07:48;;;;;;;10.85;7.47;;;20.60;99.90;;;;;;4957124;28;1295062;-42
2023/06/21 10:10:18;;;;;;;9.60;7.82;;;20.70;99.90;;;;;;4993922;28;20183;-43
2023/06/21 10:12:52;;;;;;;11.88;7.75;;;20.70;99.90;;;;;;4990856;28;20270;-42
2023/06/21 10:15:18;;;;;;;9.27;8.27;;;20.70;99.90;;;;;;4985820;28;20269;-41
2023/06/21 10:17:46;;;;;;;10.50;8.45;;;20.80;99.90;;;;;;4994098;28;20214;-43
2023/06/21 10:20:14;;;;;;;10.48;8.25;;;20.90;99.90;;;;;;4999425;28;20234;-43
2023/06/21 10:22:51;;;;;;;10.45;7.57;;;20.90;99.90;;;;;;4989287;28;20203;-42
2023/06/21 10:25:20;;;;;;;6.97;6.18;;;20.90;99.90;;;;;;4995607;28;20326;-40
2023/06/21 10:27:46;;;;;;;10.43;6.38;;;20.80;99.90;;;;;;4989555;28;20246;-43
2023/06/21 10:30:19;;;;;;;15.05;5.05;;;20.90;99.90;;;;;;4993749;28;20190;-43
2023/06/21 10:32:47;;;;;;;11.43;4.90;;;20.90;99.90;;;;;;5001462;28;20191;-41
2023/06/21 10:35:19;;;;;;;15.73;5.10;;;20.90;99.90;;;;;;5011992;28;20191;-42
2023/06/21 10:38:11;;;;;;;9.35;5.75;;;20.90;99.90;;;;;;5024498;28;20257;-42
2023/06/21 10:40:37;;;;;;;10.55;5.00;;;21.00;99.90;;;;;;4999442;28;20191;-42
2023/06/21 10:43:04;;;;;;;9.88;5.45;;;21.00;99.90;;;;;;4999196;28;20215;-41
2023/06/21 10:45:31;;;;;;;11.93;5.00;;;21.00;99.90;;;;;;4983240;28;20270;-43
2023/06/21 10:47:57;;;;;;;10.07;4.50;;;21.10;99.90;;;;;;4998736;28;20208;-42
2023/06/21 10:50:24;;;;;;;10.10;4.25;;;21.20;99.90;;;;;;4984068;28;20226;-42
2023/06/21 10:52:54;;;;;;;8.63;4.28;;;21.20;99.90;;;;;;5010402;28;20222;-40
2023/06/21 10:55:23;;;;;;;11.25;4.30;;;21.30;99.90;;;;;;5000797;28;20201;-42
2023/06/21 10:57:54;;;;;;;8.63;4.30;;;21.40;99.90;;;;;;5007357;28;20208;-40
2023/06/21 11:00:25;;;;;;;7.72;4.38;;;21.50;99.90;;;;;;4990398;28;20175;-42
2023/06/21 11:02:53;;;;;;;9.60;4.70;;;21.60;99.90;;;;;;5013436;28;20179;-41
2023/06/21 11:05:27;;;;;;;13.23;4.78;;;22.00;99.90;;;;;;4990659;28;20180;-40
2023/06/21 11:07:53;;;;;;;10.00;4.28;;;22.30;99.90;;;;;;4992780;28;20219;-42
2023/06/21 11:10:39;;;;;;;9.55;4.18;;;22.60;99.90;;;;;;5002301;28;20237;-42
2023/06/21 11:13:06;;;;;;;10.82;5.13;;;23.00;99.90;;;;;;5004944;28;20695;-41
2023/06/21 11:15:33;;;;;;;7.20;4.20;;;23.30;99.90;;;;;;4988289;28;20185;-39
2023/06/21 11:18:01;;;;;;;14.00;4.80;;;23.50;99.90;;;;;;4988959;28;20257;-41
2023/06/21 11:20:33;;;;;;;10.80;5.05;;;23.90;99.90;;;;;;5002820;28;20187;-39
2023/06/21 11:23:08;;;;;;;6.60;4.88;;;24.20;99.90;;;;;;4993161;28;20183;-42
2023/06/21 11:25:38;;;;;;;7.78;5.47;;;24.30;99.90;;;;;;4999209;28;20178;-42
2023/06/21 11:28:32;;;;;;;11.73;5.25;;;24.50;99.90;;;;;;4991785;28;20663;-40
2023/06/21 11:31:02;;;;;;;7.93;5.10;;;24.70;99.90;;;;;;4991584;28;20194;-42
2023/06/21 11:33:32;;;;;;;6.78;5.07;;;24.80;99.90;;;;;;4997616;28;20251;-41
2023/06/21 11:36:03;;;;;;;10.05;5.63;;;24.90;99.90;;;;;;4987632;28;20233;-43
2023/06/21 11:38:30;;;;;;;10.63;4.90;;;24.70;99.90;;;;;;5016103;28;20203;-42
2023/06/21 11:40:57;;;;;;;8.02;5.20;;;24.90;99.90;;;;;;4986791;28;20183;-42
2023/06/21 11:43:24;;;;;;;10.00;5.25;;;25.10;99.90;;;;;;4981992;28;20182;-43
2023/06/21 11:46:00;;;;;;;6.50;4.82;;;25.30;99.90;;;;;;4994850;28;20186;-42
2023/06/21 11:48:27;;;;;;;7.38;5.00;;;25.50;99.90;;;;;;5001549;28;20231;-42
2023/06/21 11:51:07;;;;;;;9.18;4.57;;;25.80;99.90;;;;;;5004355;28;20239;-43
2023/06/21 11:53:41;;;;;;;8.02;4.60;;;26.00;99.90;;;;;;4996394;28;20187;-42
2023/06/21 11:56:17;;;;;;;8.07;5.35;;;26.20;99.90;;;;;;5002921;28;20207;-43
2023/06/21 11:58:43;;;;;;;8.93;5.10;;;26.20;99.90;;;;;;4998844;28;20189;-41
2023/06/21 12:01:09;;;;;;;5.70;4.40;;;26.40;99.90;;;;;;5001055;28;20176;-42
2023/06/21 12:03:35;;;;;;;6.38;4.47;;;26.20;99.90;;;;;;5001669;28;20440;-43
2023/06/21 12:06:02;;;;;;;4.85;4.35;;;26.30;99.90;;;;;;4990223;28;20179;-43
2023/06/21 12:08:36;;;;;;;6.18;4.38;;;26.20;99.90;;;;;;5001350;28;20215;-43
2023/06/21 12:11:04;;;;;;;6.82;5.00;;;26.20;99.90;;;;;;4989775;28;20186;-42
2023/06/21 12:13:33;;;;;;;7.30;4.88;;;26.30;99.90;;;;;;4981586;28;20180;-43
2023/06/21 12:16:08;;;;;;;5.35;4.88;;;26.40;99.90;;;;;;4999721;28;20175;-42
2023/06/21 12:18:36;;;;;;;7.43;4.95;;;26.60;99.90;;;;;;5003474;28;20178;-43
2023/06/21 12:21:09;;;;;;;7.45;5.35;;;26.70;99.90;;;;;;4990466;28;20218;-42
2023/06/21 12:23:38;;;;;;;5.65;4.75;;;27.00;99.90;;;;;;4997066;28;20186;-43
2023/06/21 12:26:06;;;;;;;7.53;5.18;;;27.20;99.90;;;;;;5019854;28;20184;-43
2023/06/21 12:28:34;;;;;;;7.50;5.10;;;27.60;99.90;;;;;;4981171;28;20180;-43
2023/06/21 12:31:15;;;;;;;7.57;5.63;;;27.80;99.90;;;;;;4987387;28;20177;-42
2023/06/21 12:33:43;;;;;;;6.40;4.82;;;27.80;99.90;;;;;;5008676;28;20186;-41
2023/06/21 12:36:28;;;;;;;7.38;5.15;;;28.00;99.90;;;;;;4999622;28;20228;-43
2023/06/21 12:39:06;;;;;;;6.35;5.15;;;28.20;99.90;;;;;;5007670;28;20182;-43
2023/06/21 12:41:34;;;;;;;6.28;4.75;;;28.40;99.90;;;;;;5002790;28;20230;-44